Time;durP1;ratioP1;P1;durP2;ratioP2;P2;SDS_P1;SDS_P2;PMS_P1;PMS_P2;Temp;Humidity;BMP_temperature;BMP_pressure;BME280_temperature;BME280_humidity;BME280_pressure;Samples;Min_cycle;Max_cycle;Signal;HPM_P1;HPM_P2
2024/01/07 00:00:23;;;;;;;;;;;;;;;-4.01;66.81;100512.84;109734;1286;22507;-81
2024/01/07 00:02:51;;;;;;;;;;;;;;;-4.01;66.74;100511.41;109806;1286;22416;-82
2024/01/07 00:05:18;;;;;;;;;;;;;;;-4.03;66.79;100512.54;109854;1279;23352;-83
2024/01/07 00:07:45;;;;;;;;;;;;;;;-4.02;66.89;100507.59;109955;1280;22540;-80
2024/01/07 00:10:12;;;;;;;;;;;;;;;-4.04;66.80;100504.23;109966;1281;22442;-80
2024/01/07 00:12:39;;;;;;;;;;;;;;;-4.06;66.81;100506.86;109835;1285;22407;-81
2024/01/07 00:15:06;;;;;;;;;;;;;;;-4.09;66.78;100511.35;109798;1273;22420;-83
2024/01/07 00:17:33;;;;;;;;;;;;;;;-4.08;67.03;100510.20;109791;1280;22466;-81
2024/01/07 00:20:01;;;;;;;;;;;;;;;-4.02;67.17;100511.58;110031;1275;22457;-79
2024/01/07 00:22:28;;;;;;;;;;;;;;;-3.99;67.11;100512.77;110090;1280;23194;-81
2024/01/07 00:24:55;;;;;;;;;;;;;;;-3.98;67.10;100512.12;110035;1280;23319;-81
2024/01/07 00:27:22;;;;;;;;;;;;;;;-4.00;66.97;100511.67;110024;1280;22411;-80
2024/01/07 00:29:49;;;;;;;;;;;;;;;-4.04;67.12;100510.25;110135;1276;22435;-82
2024/01/07 00:32:15;;;;;;;;;;;;;;;-4.02;67.31;100512.23;110428;1275;22408;-80
2024/01/07 00:34:43;;;;;;;;;;;;;;;-4.03;67.31;100516.34;110464;1276;22413;-81
2024/01/07 00:37:11;;;;;;;;;;;;;;;-4.04;67.43;100520.08;110424;1276;23129;-89
2024/01/07 00:39:42;;;;;;;;;;;;;;;-4.06;67.45;100524.45;110426;1276;23163;-82
2024/01/07 00:42:10;;;;;;;;;;;;;;;-4.09;67.34;100532.02;110421;1276;22379;-83
2024/01/07 00:44:37;;;;;;;;;;;;;;;-4.08;67.59;100527.44;110458;1273;22344;-83
2024/01/07 00:47:04;;;;;;;;;;;;;;;-4.07;67.53;100523.14;110422;1276;23097;-82
2024/01/07 00:49:31;;;;;;;;;;;;;;;-4.10;67.51;100526.10;110539;1272;22459;-82
2024/01/07 00:51:58;;;;;;;;;;;;;;;-4.11;67.61;100524.69;110480;1276;22383;-84
2024/01/07 00:54:25;;;;;;;;;;;;;;;-4.13;67.56;100527.35;110383;1276;23085;-82
2024/01/07 00:56:52;;;;;;;;;;;;;;;-4.10;67.76;100530.77;110419;1272;22420;-83
2024/01/07 00:59:19;;;;;;;;;;;;;;;-4.11;67.61;100531.92;110384;1276;22368;-82
2024/01/07 01:01:46;;;;;;;;;;;;;;;-4.09;67.87;100532.52;110386;1273;22546;-84
2024/01/07 01:04:14;;;;;;;;;;;;;;;-4.07;67.86;100533.83;110450;1275;23226;-85
2024/01/07 01:06:40;;;;;;;;;;;;;;;-4.07;67.74;100532.47;110455;1269;23005;-82
2024/01/07 01:09:07;;;;;;;;;;;;;;;-4.06;67.52;100538.15;110474;1275;22347;-81
2024/01/07 01:11:38;;;;;;;;;;;;;;;-4.05;67.76;100535.51;110495;1275;23068;-83
2024/01/07 01:14:04;;;;;;;;;;;;;;;-3.95;67.93;100540.30;110410;1275;22548;-83
2024/01/07 01:16:31;;;;;;;;;;;;;;;-3.91;67.58;100539.15;110397;1263;22483;-82
2024/01/07 01:18:58;;;;;;;;;;;;;;;-3.90;67.39;100538.33;110369;1275;22511;-82
2024/01/07 01:21:25;;;;;;;;;;;;;;;-3.92;67.47;100541.31;110438;1275;22399;-81
2024/01/07 01:23:52;;;;;;;;;;;;;;;-3.92;67.36;100538.70;110558;1275;22412;-82
2024/01/07 01:26:19;;;;;;;;;;;;;;;-3.93;67.31;100536.98;110530;1270;23250;-82
2024/01/07 01:28:46;;;;;;;;;;;;;;;-3.96;67.27;100539.22;110401;1275;22542;-84
2024/01/07 01:31:14;;;;;;;;;;;;;;;-3.99;67.14;100541.33;110407;1275;22385;-85
2024/01/07 01:33:41;;;;;;;;;;;;;;;-4.00;67.30;100538.17;109941;1281;22495;-83
2024/01/07 01:36:08;;;;;;;;;;;;;;;-3.98;67.29;100543.75;110004;1276;22521;-83
2024/01/07 01:38:35;;;;;;;;;;;;;;;-3.98;67.26;100542.90;109962;1281;22551;-83
2024/01/07 01:41:02;;;;;;;;;;;;;;;-3.98;67.44;100540.16;109987;1280;23198;-83
2024/01/07 01:43:29;;;;;;;;;;;;;;;-3.97;67.28;100541.89;109983;1281;22519;-83
2024/01/07 01:45:56;;;;;;;;;;;;;;;-3.97;67.44;100542.29;110005;1276;22441;-83
2024/01/07 01:48:24;;;;;;;;;;;;;;;-3.94;67.52;100541.02;109619;1288;22462;-83
2024/01/07 01:50:54;;;;;;;;;;;;;;;-3.92;67.61;100539.24;109706;1281;22441;-83
2024/01/07 01:53:20;;;;;;;;;;;;;;;-3.90;67.64;100536.23;109950;1265;22429;-82
2024/01/07 01:55:48;;;;;;;;;;;;;;;-3.91;67.78;100536.91;109970;1277;22432;-81
2024/01/07 01:58:17;;;;;;;;;;;;;;;-3.93;67.54;100536.96;109994;1281;22380;-82
2024/01/07 02:00:44;;;;;;;;;;;;;;;-3.93;67.71;100536.09;109995;1277;22507;-82
2024/01/07 02:03:11;;;;;;;;;;;;;;;-3.91;67.73;100539.48;109966;1281;23126;-82
2024/01/07 02:05:38;;;;;;;;;;;;;;;-3.91;67.77;100539.64;109829;1280;22444;-83
2024/01/07 02:08:06;;;;;;;;;;;;;;;-3.91;67.50;100537.73;109994;1280;22417;-83
2024/01/07 02:10:36;;;;;;;;;;;;;;;-3.95;67.34;100538.38;110038;1280;22456;-83
2024/01/07 02:13:23;;;;;;;;;;;;;;;-3.94;67.63;100539.33;110012;1280;22439;-83
2024/01/07 02:15:50;;;;;;;;;;;;;;;-3.86;67.90;100536.63;109999;1280;22404;-82
2024/01/07 02:18:17;;;;;;;;;;;;;;;-3.81;67.68;100536.55;110019;1280;22413;-83
2024/01/07 02:20:44;;;;;;;;;;;;;;;-3.83;67.28;100535.23;110091;1280;22616;-82
2024/01/07 02:23:10;;;;;;;;;;;;;;;-3.86;67.49;100533.18;110138;1275;22391;-82
2024/01/07 02:25:38;;;;;;;;;;;;;;;-3.86;67.42;100533.53;110492;1269;22416;-83
2024/01/07 02:28:05;;;;;;;;;;;;;;;-3.88;67.11;100535.66;110468;1262;22360;-82
2024/01/07 02:30:34;;;;;;;;;;;;;;;-4.02;66.79;100537.88;110418;1275;22393;-83
2024/01/07 02:33:03;;;;;;;;;;;;;;;-4.09;67.28;100537.34;110469;1269;22354;-82
2024/01/07 02:35:31;;;;;;;;;;;;;;;-4.14;67.13;100538.27;110473;1275;22385;-82
2024/01/07 02:37:58;;;;;;;;;;;;;;;-4.25;67.07;100541.69;110489;1274;22457;-82
2024/01/07 02:40:25;;;;;;;;;;;;;;;-4.28;67.56;100538.95;110575;1275;22410;-85
2024/01/07 02:42:52;;;;;;;;;;;;;;;-4.28;67.55;100540.98;110479;1269;22479;-81
2024/01/07 02:45:19;;;;;;;;;;;;;;;-4.26;67.69;100537.17;110570;1275;22387;-82
2024/01/07 02:47:46;;;;;;;;;;;;;;;-4.31;67.70;100542.04;110562;1273;22384;-82
2024/01/07 02:50:15;;;;;;;;;;;;;;;-4.27;67.94;100539.69;110513;1275;22331;-83
2024/01/07 02:52:42;;;;;;;;;;;;;;;-4.22;67.80;100542.18;110492;1275;22473;-81
2024/01/07 02:55:11;;;;;;;;;;;;;;;-4.18;67.69;100536.55;110485;1275;22327;-82
2024/01/07 02:57:38;;;;;;;;;;;;;;;-4.14;67.60;100536.77;110089;1281;23128;-82
2024/01/07 03:00:05;;;;;;;;;;;;;;;-4.10;67.35;100535.77;110084;1281;22400;-83
2024/01/07 03:02:32;;;;;;;;;;;;;;;-4.12;67.22;100538.25;110156;1281;22441;-83
2024/01/07 03:04:59;;;;;;;;;;;;;;;-4.12;67.13;100537.20;110153;1281;22439;-83
2024/01/07 03:07:26;;;;;;;;;;;;;;;-4.17;67.06;100534.35;109719;1288;23225;-83
2024/01/07 03:09:53;;;;;;;;;;;;;;;-4.15;67.18;100537.89;109660;1285;22422;-83
2024/01/07 03:12:20;;;;;;;;;;;;;;;-4.12;67.24;100540.13;109654;1287;22524;-83
2024/01/07 03:14:47;;;;;;;;;;;;;;;-4.08;67.16;100540.45;109784;1281;22551;-81
2024/01/07 03:17:17;;;;;;;;;;;;;;;-4.11;66.89;100538.80;110002;1281;22453;-81
2024/01/07 03:19:45;;;;;;;;;;;;;;;-4.16;66.94;100535.95;109986;1281;22397;-83
2024/01/07 03:22:12;;;;;;;;;;;;;;;-4.15;67.09;100539.95;109967;1281;22449;-82
2024/01/07 03:24:41;;;;;;;;;;;;;;;-4.17;66.88;100540.02;110072;1275;22508;-81
2024/01/07 03:27:08;;;;;;;;;;;;;;;-4.20;66.74;100540.55;110393;1271;22418;-82
2024/01/07 03:29:36;;;;;;;;;;;;;;;-4.21;66.90;100538.26;110406;1276;22388;-82
2024/01/07 03:32:03;;;;;;;;;;;;;;;-4.24;66.78;100540.17;110481;1270;22577;-81
2024/01/07 03:34:30;;;;;;;;;;;;;;;-4.29;66.76;100540.61;110431;1276;22493;-84
2024/01/07 03:36:57;;;;;;;;;;;;;;;-4.33;66.60;100535.91;110020;1282;22501;-82
2024/01/07 03:39:24;;;;;;;;;;;;;;;-4.39;66.81;100539.59;110005;1282;22413;-82
2024/01/07 03:41:55;;;;;;;;;;;;;;;-4.39;66.72;100539.71;109969;1276;22426;-82
2024/01/07 03:44:22;;;;;;;;;;;;;;;-4.33;66.98;100542.13;109984;1281;23231;-81
2024/01/07 03:46:50;;;;;;;;;;;;;;;-4.28;66.86;100535.85;109964;1281;23170;-81
2024/01/07 03:49:18;;;;;;;;;;;;;;;-4.21;66.97;100541.55;109995;1281;22528;-83
2024/01/07 03:51:45;;;;;;;;;;;;;;;-4.16;66.69;100546.45;109955;1281;22552;-83
2024/01/07 03:54:12;;;;;;;;;;;;;;;-4.19;66.34;100547.33;110046;1275;22459;-82
2024/01/07 03:56:39;;;;;;;;;;;;;;;-4.25;66.30;100552.17;110483;1268;22389;-83
2024/01/07 03:59:07;;;;;;;;;;;;;;;-4.23;66.55;100556.73;110449;1269;23092;-81
2024/01/07 04:01:34;;;;;;;;;;;;;;;-4.25;66.35;100553.20;110190;1271;22437;-84
2024/01/07 04:04:02;;;;;;;;;;;;;;;-4.31;66.31;100555.63;109801;1284;22458;-82
2024/01/07 04:06:29;;;;;;;;;;;;;;;-4.32;66.50;100557.10;109895;1277;23154;-82
2024/01/07 04:08:56;;;;;;;;;;;;;;;-4.32;66.44;100561.58;109753;1270;22516;-80
2024/01/07 04:11:23;;;;;;;;;;;;;;;-4.38;66.05;100554.42;109881;1284;22501;-81
2024/01/07 04:13:50;;;;;;;;;;;;;;;-4.41;66.31;100555.78;109732;1284;22431;-82
2024/01/07 04:16:21;;;;;;;;;;;;;;;-4.52;65.65;100556.90;109889;1277;22452;-81
2024/01/07 04:18:48;;;;;;;;;;;;;;;-4.63;66.21;100556.50;109921;1281;22444;-82
2024/01/07 04:21:20;;;;;;;;;;;;;;;-4.61;66.09;100555.59;109896;1284;22425;-81
2024/01/07 04:23:47;;;;;;;;;;;;;;;-4.60;66.21;100553.56;109883;1284;22444;-80
2024/01/07 04:26:14;;;;;;;;;;;;;;;-4.51;66.57;100551.48;109831;1284;22387;-81
2024/01/07 04:28:41;;;;;;;;;;;;;;;-4.42;66.50;100552.11;109998;1270;22519;-82
2024/01/07 04:31:08;;;;;;;;;;;;;;;-4.43;66.00;100556.73;110040;1277;22365;-82
2024/01/07 04:33:36;;;;;;;;;;;;;;;-4.48;66.15;100557.64;110054;1280;22441;-85
2024/01/07 04:36:04;;;;;;;;;;;;;;;-4.43;66.45;100557.57;110034;1280;22458;-81
2024/01/07 04:38:31;;;;;;;;;;;;;;;-4.44;66.18;100557.69;110000;1276;23182;-80
2024/01/07 04:40:57;;;;;;;;;;;;;;;-4.48;66.34;100558.49;110418;1276;22459;-81
2024/01/07 04:43:24;;;;;;;;;;;;;;;-4.51;66.24;100555.79;110368;1276;22458;-81
2024/01/07 04:45:51;;;;;;;;;;;;;;;-4.54;66.11;100557.84;110364;1276;22389;-81
2024/01/07 04:48:20;;;;;;;;;;;;;;;-4.62;65.93;100559.48;110419;1270;22363;-81
2024/01/07 04:50:48;;;;;;;;;;;;;;;-4.62;66.46;100561.70;110020;1280;22467;-82
2024/01/07 04:53:15;;;;;;;;;;;;;;;-4.59;66.58;100560.14;109951;1280;22414;-82
2024/01/07 04:55:42;;;;;;;;;;;;;;;-4.60;66.32;100561.80;109759;1284;22446;-81
2024/01/07 04:58:09;;;;;;;;;;;;;;;-4.64;66.38;100561.39;109429;1291;22521;-82
2024/01/07 05:00:37;;;;;;;;;;;;;;;-4.68;66.28;100563.96;109493;1284;22440;-85
2024/01/07 05:03:04;;;;;;;;;;;;;;;-4.68;66.56;100564.48;109450;1291;22444;-81
2024/01/07 05:05:31;;;;;;;;;;;;;;;-4.67;66.57;100566.59;108828;1292;22435;-83
2024/01/07 05:08:00;;;;;;;;;;;;;;;-4.69;66.41;100566.96;108314;1298;22528;-83
2024/01/07 05:10:27;;;;;;;;;;;;;;;-4.69;66.30;100569.55;108362;1301;22446;-82
2024/01/07 05:12:54;;;;;;;;;;;;;;;-4.68;65.93;100570.48;108245;1297;22437;-81
2024/01/07 05:15:21;;;;;;;;;;;;;;;-4.75;65.81;100568.40;108809;1287;22466;-79
2024/01/07 05:17:48;;;;;;;;;;;;;;;-4.76;66.02;100576.60;109703;1280;22422;-81
2024/01/07 05:20:16;;;;;;;;;;;;;;;-4.85;65.68;100578.14;109658;1286;22514;-82
2024/01/07 05:22:43;;;;;;;;;;;;;;;-4.86;66.32;100582.23;109710;1280;23128;-83
2024/01/07 05:25:10;;;;;;;;;;;;;;;-4.81;66.56;100585.59;109723;1281;22435;-82
2024/01/07 05:27:37;;;;;;;;;;;;;;;-4.76;66.41;100581.55;109949;1281;22451;-81
2024/01/07 05:30:07;;;;;;;;;;;;;;;-4.78;66.00;100581.96;109764;1284;22424;-81
2024/01/07 05:32:34;;;;;;;;;;;;;;;-4.85;65.83;100582.44;109814;1283;22466;-82
2024/01/07 05:35:02;;;;;;;;;;;;;;;-4.91;66.03;100582.42;109764;1284;22389;-81
2024/01/07 05:37:28;;;;;;;;;;;;;;;-4.87;66.79;100584.73;109501;1291;22592;-81
2024/01/07 05:39:56;;;;;;;;;;;;;;;-4.83;66.33;100584.78;108829;1294;22479;-81
2024/01/07 05:42:23;;;;;;;;;;;;;;;-4.80;66.50;100588.55;108702;1291;22449;-81
2024/01/07 05:44:50;;;;;;;;;;;;;;;-4.76;66.18;100586.54;109338;1286;22468;-81
2024/01/07 05:47:18;;;;;;;;;;;;;;;-4.79;66.12;100589.83;109009;1291;22662;-82
2024/01/07 05:49:45;;;;;;;;;;;;;;;-4.87;65.64;100589.90;108482;1301;22436;-82
2024/01/07 05:52:12;;;;;;;;;;;;;;;-5.00;65.77;100591.39;108373;1301;22438;-83
2024/01/07 05:54:40;;;;;;;;;;;;;;;-4.99;66.40;100590.57;108069;1297;22477;-83
2024/01/07 05:57:07;;;;;;;;;;;;;;;-4.95;66.34;100591.86;108865;1289;22472;-83
2024/01/07 05:59:34;;;;;;;;;;;;;;;-4.84;66.34;100586.77;109206;1293;22403;-82
2024/01/07 06:02:04;;;;;;;;;;;;;;;-4.77;66.16;100584.28;109205;1286;22433;-83
2024/01/07 06:04:31;;;;;;;;;;;;;;;-4.80;65.75;100582.39;109261;1286;23294;-83
2024/01/07 06:06:58;;;;;;;;;;;;;;;-4.79;66.18;100591.38;109773;1279;22456;-82
2024/01/07 06:09:26;;;;;;;;;;;;;;;-4.75;66.19;100593.34;110097;1279;22409;-83
2024/01/07 06:11:53;;;;;;;;;;;;;;;-4.77;66.05;100595.11;110048;1275;22466;-83
2024/01/07 06:14:22;;;;;;;;;;;;;;;-4.81;65.66;100594.19;110533;1273;22399;-83
2024/01/07 06:16:49;;;;;;;;;;;;;;;-4.83;66.11;100595.25;110439;1276;22422;-82
2024/01/07 06:19:18;;;;;;;;;;;;;;;-4.80;66.19;100594.89;110565;1275;22416;-83
2024/01/07 06:21:45;;;;;;;;;;;;;;;-4.83;65.92;100597.85;110453;1275;22384;-84
2024/01/07 06:24:12;;;;;;;;;;;;;;;-4.83;66.00;100595.27;110506;1273;22307;-84
2024/01/07 06:26:40;;;;;;;;;;;;;;;-4.81;66.12;100600.02;110494;1273;22264;-85
2024/01/07 06:29:09;;;;;;;;;;;;;;;-4.84;65.86;100603.81;110516;1269;22316;-84
2024/01/07 06:31:36;;;;;;;;;;;;;;;-4.85;65.97;100606.31;110575;1275;22431;-84
2024/01/07 06:34:03;;;;;;;;;;;;;;;-4.90;65.77;100607.60;110458;1275;22295;-84
2024/01/07 06:36:30;;;;;;;;;;;;;;;-4.90;66.06;100611.38;110533;1262;22215;-84
2024/01/07 06:38:57;;;;;;;;;;;;;;;-4.86;66.10;100612.62;110468;1275;22186;-84
2024/01/07 06:41:24;;;;;;;;;;;;;;;-4.82;65.99;100617.80;110520;1275;22307;-84
2024/01/07 06:43:53;;;;;;;;;;;;;;;-4.80;65.86;100619.29;110576;1272;22359;-83
2024/01/07 06:46:20;;;;;;;;;;;;;;;-4.76;66.15;100627.11;110490;1275;22206;-83
2024/01/07 06:52:41;;;;;;;;;;;;;;;-4.73;65.98;100629.17;110556;1275;22170;-85
2024/01/07 06:55:08;;;;;;;;;;;;;;;-4.75;66.00;100630.98;110566;1275;22491;-83
2024/01/07 06:57:36;;;;;;;;;;;;;;;-4.75;65.84;100633.50;109967;1282;22436;-84
2024/01/07 07:00:04;;;;;;;;;;;;;;;-4.75;65.97;100639.88;109984;1283;22403;-85
2024/01/07 07:02:31;;;;;;;;;;;;;;;-4.75;65.95;100637.67;110015;1278;22210;-83
2024/01/07 07:04:58;;;;;;;;;;;;;;;-4.72;66.11;100640.92;110014;1282;22467;-84
2024/01/07 07:07:25;;;;;;;;;;;;;;;-4.72;65.99;100642.94;109997;1282;22355;-85
2024/01/07 07:09:53;;;;;;;;;;;;;;;-4.72;66.13;100645.20;109958;1283;22401;-84
2024/01/07 07:12:19;;;;;;;;;;;;;;;-4.72;65.80;100643.48;110008;1278;23277;-84
2024/01/07 07:14:47;;;;;;;;;;;;;;;-4.80;65.54;100643.04;110002;1282;22621;-84
2024/01/07 07:17:15;;;;;;;;;;;;;;;-4.83;65.79;100648.20;110003;1283;22457;-84
2024/01/07 07:19:42;;;;;;;;;;;;;;;-4.79;66.11;100648.59;109701;1285;23240;-82
2024/01/07 07:22:11;;;;;;;;;;;;;;;-4.77;65.80;100649.41;109896;1280;22390;-83
2024/01/07 07:24:40;;;;;;;;;;;;;;;-4.75;65.72;100650.52;110007;1280;22311;-83
2024/01/07 07:27:07;;;;;;;;;;;;;;;-4.75;65.73;100649.65;110001;1280;23006;-84
2024/01/07 07:29:34;;;;;;;;;;;;;;;-4.78;65.70;100655.54;110050;1280;22396;-84
2024/01/07 07:32:01;;;;;;;;;;;;;;;-4.75;65.69;100648.33;109793;1275;348420;-83
2024/01/07 07:34:29;;;;;;;;;;;;;;;-4.74;65.66;100652.31;110047;1278;22428;-84
2024/01/07 07:36:58;;;;;;;;;;;;;;;-4.72;65.55;100654.48;109707;1287;22413;-84
2024/01/07 07:39:27;;;;;;;;;;;;;;;-4.68;65.44;100657.94;109728;1287;22472;-85
2024/01/07 07:41:55;;;;;;;;;;;;;;;-4.67;65.38;100658.03;109365;1290;23214;-84
2024/01/07 07:44:30;;;;;;;;;;;;;;;-4.71;65.27;100660.37;109657;1286;22443;-85
2024/01/07 07:46:57;;;;;;;;;;;;;;;-4.73;65.48;100658.88;109728;1285;22412;-84
2024/01/07 07:49:24;;;;;;;;;;;;;;;-4.75;65.46;100661.20;109717;1286;22451;-84
2024/01/07 07:51:55;;;;;;;;;;;;;;;-4.75;65.71;100659.45;109763;1286;22450;-83
2024/01/07 07:54:22;;;;;;;;;;;;;;;-4.73;65.79;100659.59;109827;1281;22439;-83
2024/01/07 07:56:50;;;;;;;;;;;;;;;-4.69;65.82;100662.91;110069;1281;22475;-82
2024/01/07 07:59:19;;;;;;;;;;;;;;;-4.65;65.93;100667.60;110100;1276;23220;-83
2024/01/07 08:01:49;;;;;;;;;;;;;;;-4.63;65.65;100671.28;110036;1282;22442;-83
2024/01/07 08:04:16;;;;;;;;;;;;;;;-4.65;65.70;100670.67;110067;1279;22455;-82
2024/01/07 08:06:44;;;;;;;;;;;;;;;-4.65;65.50;100673.06;110036;1282;23121;-83
2024/01/07 08:09:12;;;;;;;;;;;;;;;-4.67;65.63;100673.14;110020;1280;23142;-83
2024/01/07 08:11:39;;;;;;;;;;;;;;;-4.66;65.55;100673.54;110009;1276;22354;-83
2024/01/07 08:14:09;;;;;;;;;;;;;;;-4.65;65.55;100672.20;109702;1288;23165;-84
2024/01/07 08:16:36;;;;;;;;;;;;;;;-4.62;65.68;100675.13;109781;1285;22503;-83
2024/01/07 08:19:03;;;;;;;;;;;;;;;-4.59;65.60;100682.04;109384;1287;23202;-83
2024/01/07 08:21:31;;;;;;;;;;;;;;;-4.56;65.47;100683.19;109744;1287;23341;-82
2024/01/07 08:23:58;;;;;;;;;;;;;;;-4.51;65.71;100688.50;109777;1287;22426;-84
2024/01/07 08:26:25;;;;;;;;;;;;;;;-4.46;65.31;100691.02;109746;1285;22425;-84
2024/01/07 08:28:52;;;;;;;;;;;;;;;-4.48;65.22;100696.05;109294;1292;22496;-83
2024/01/07 08:31:21;;;;;;;;;;;;;;;-4.41;65.20;100701.06;109453;1287;22424;-83
2024/01/07 08:33:48;;;;;;;;;;;;;;;-4.39;65.13;100699.10;109754;1287;23398;-83
2024/01/07 08:36:16;;;;;;;;;;;;;;;-4.32;65.05;100701.23;109762;1287;23196;-82
2024/01/07 08:38:44;;;;;;;;;;;;;;;-4.28;65.03;100702.31;109680;1287;22409;-84
2024/01/07 08:41:11;;;;;;;;;;;;;;;-4.23;65.14;100700.02;109775;1287;22410;-83
2024/01/07 08:43:39;;;;;;;;;;;;;;;-4.21;64.96;100701.33;109565;1286;23135;-85
2024/01/07 08:46:06;;;;;;;;;;;;;;;-4.24;64.80;100701.33;109876;1286;23121;-84
2024/01/07 08:48:38;;;;;;;;;;;;;;;-4.25;64.81;100699.77;109482;1288;22406;-84
2024/01/07 08:51:05;;;;;;;;;;;;;;;-4.25;64.90;100696.30;108640;1297;22543;-83
2024/01/07 08:53:33;;;;;;;;;;;;;;;-4.28;64.60;100704.20;109035;1293;22436;-83
2024/01/07 08:56:00;;;;;;;;;;;;;;;-4.33;64.67;100707.71;109044;1293;22455;-84
2024/01/07 08:58:27;;;;;;;;;;;;;;;-4.32;64.94;100707.77;109256;1289;22421;-83
2024/01/07 09:00:53;;;;;;;;;;;;;;;-4.27;64.94;100708.71;109223;1288;22529;-83
2024/01/07 09:03:20;;;;;;;;;;;;;;;-4.28;64.49;100713.83;109601;1288;22428;-83
2024/01/07 09:05:47;;;;;;;;;;;;;;;-4.29;64.72;100714.45;109649;1281;22590;-83
2024/01/07 09:08:14;;;;;;;;;;;;;;;-4.30;64.52;100718.55;109784;1282;22392;-84
2024/01/07 09:10:41;;;;;;;;;;;;;;;-4.31;64.57;100715.54;110058;1269;22386;-83
2024/01/07 09:13:33;;;;;;;;;;;;;;;-4.27;64.74;100718.17;110045;1278;23221;-83
2024/01/07 09:20:25;;;;;;;;;;;;;;;-4.30;64.52;100714.73;110045;1281;22418;-83
2024/01/07 09:34:57;;;;;;;;;;;;;;;-4.22;63.98;100714.36;110556;1275;22362;-83
2024/01/07 09:37:25;;;;;;;;;;;;;;;-4.17;64.30;100713.95;110007;1280;22422;-84
2024/01/07 09:39:52;;;;;;;;;;;;;;;-4.06;64.45;100706.95;109985;1279;22444;-81
2024/01/07 09:42:49;;;;;;;;;;;;;;;-4.05;64.02;100705.99;110016;1283;22683;-83
2024/01/07 09:45:18;;;;;;;;;;;;;;;-3.94;64.35;100698.63;110014;1282;22484;-85
2024/01/07 09:47:45;;;;;;;;;;;;;;;-3.90;64.06;100700.27;109917;1282;23228;-84
2024/01/07 09:50:13;;;;;;;;;;;;;;;-3.87;64.05;100700.55;109945;1282;22417;-83
2024/01/07 09:52:42;;;;;;;;;;;;;;;-3.91;63.70;100699.48;109939;1282;22472;-83
2024/01/07 09:55:12;;;;;;;;;;;;;;;-3.98;63.52;100698.29;110182;1275;23009;-84
2024/01/07 09:57:48;;;;;;;;;;;;;;;-4.05;63.62;100702.54;110952;1259;22399;-84
2024/01/07 10:00:15;;;;;;;;;;;;;;;-4.08;63.56;100706.14;110193;1278;23169;-83
2024/01/07 10:02:42;;;;;;;;;;;;;;;-4.14;63.53;100705.48;110067;1279;22373;-84
2024/01/07 10:05:14;;;;;;;;;;;;;;;-4.16;63.72;100705.01;110032;1279;22886;-85
2024/01/07 10:11:34;;;;;;;;;;;;;;;-4.20;63.91;100701.02;110181;1279;22430;-83
2024/01/07 10:14:01;;;;;;;;;;;;;;;-4.21;63.93;100703.02;110218;1279;22226;-84
2024/01/07 10:16:28;;;;;;;;;;;;;;;-4.28;63.67;100705.77;110075;1278;22566;-84
2024/01/07 10:19:01;;;;;;;;;;;;;;;-4.29;63.98;100705.00;110051;1278;23195;-88
2024/01/07 10:22:02;;;;;;;;;;;;;;;-4.30;63.96;100706.51;110250;1279;23147;-82
2024/01/07 10:24:38;;;;;;;;;;;;;;;-4.28;63.96;100701.96;110213;1275;22408;-83
2024/01/07 10:27:06;;;;;;;;;;;;;;;-4.27;63.91;100699.62;110560;1276;23046;-82
2024/01/07 10:29:33;;;;;;;;;;;;;;;-4.28;64.10;100697.84;110312;1276;22394;-83
2024/01/07 10:32:04;;;;;;;;;;;;;;;-4.23;64.08;100697.80;110340;1276;22193;-84
2024/01/07 10:37:48;;;;;;;;;;;;;;;-4.10;64.21;100697.48;110573;1275;22315;-82
2024/01/07 10:40:40;;;;;;;;;;;;;;;-4.02;64.37;100694.27;110360;1266;22417;-89
2024/01/07 10:43:15;;;;;;;;;;;;;;;-3.96;63.98;100688.03;110437;1275;22389;-85
2024/01/07 11:14:29;;;;;;;;;;;;;;;-4.14;63.95;100702.22;110455;1277;22102;-84
2024/01/07 11:49:11;;;;;;;;;;;;;;;-4.06;63.60;100694.59;109982;1283;23070;-86
2024/01/07 12:27:05;;;;;;;;;;;;;;;-4.30;62.62;100704.24;110498;1276;22352;-84
2024/01/07 12:56:55;;;;;;;;;;;;;;;-4.53;62.26;100720.85;110582;1276;22422;-90
2024/01/07 12:59:23;;;;;;;;;;;;;;;-4.52;62.24;100730.88;110493;1276;22378;-85
2024/01/07 13:01:53;;;;;;;;;;;;;;;-4.54;61.91;100734.90;110461;1275;22347;-85
2024/01/07 13:04:20;;;;;;;;;;;;;;;-4.59;61.93;100740.98;110557;1276;22289;-87
2024/01/07 13:10:35;;;;;;;;;;;;;;;-4.55;62.41;100743.10;110557;1276;22218;-88
2024/01/07 13:13:04;;;;;;;;;;;;;;;-4.54;62.34;100745.02;110328;1276;23282;-87
2024/01/07 13:15:42;;;;;;;;;;;;;;;-4.58;62.06;100747.02;110517;1276;22264;-86
2024/01/07 13:18:15;;;;;;;;;;;;;;;-4.62;62.23;100749.25;110422;1276;22422;-85
2024/01/07 13:20:42;;;;;;;;;;;;;;;-4.63;62.24;100744.35;110523;1276;22285;-83
2024/01/07 13:23:09;;;;;;;;;;;;;;;-4.66;62.43;100744.88;110398;1276;22419;-86
2024/01/07 13:25:36;;;;;;;;;;;;;;;-4.64;62.70;100751.17;110382;1276;23119;-84
2024/01/07 13:28:03;;;;;;;;;;;;;;;-4.61;62.54;100754.45;110454;1275;22608;-82
2024/01/07 13:30:32;;;;;;;;;;;;;;;-4.62;62.45;100761.41;110462;1274;22452;-84
2024/01/07 13:32:59;;;;;;;;;;;;;;;-4.62;62.39;100762.27;110520;1276;22432;-84
2024/01/07 13:35:29;;;;;;;;;;;;;;;-4.62;62.17;100760.94;110399;1275;22382;-84
2024/01/07 13:37:57;;;;;;;;;;;;;;;-4.60;62.11;100760.67;110491;1275;22446;-84
2024/01/07 13:40:25;;;;;;;;;;;;;;;-4.63;61.90;100758.77;110264;1278;22573;-84
2024/01/07 13:42:53;;;;;;;;;;;;;;;-4.66;61.90;100760.87;110073;1278;22425;-84
2024/01/07 13:45:22;;;;;;;;;;;;;;;-4.61;62.22;100764.60;110133;1276;22418;-82
2024/01/07 13:47:50;;;;;;;;;;;;;;;-4.53;62.26;100765.19;110120;1278;22451;-84
2024/01/07 13:50:18;;;;;;;;;;;;;;;-4.54;62.08;100763.95;110156;1278;22479;-81
2024/01/07 13:52:45;;;;;;;;;;;;;;;-4.54;61.79;100763.44;110347;1277;22400;-82
2024/01/07 13:55:13;;;;;;;;;;;;;;;-4.58;61.81;100761.29;110096;1278;22459;-82
2024/01/07 13:57:41;;;;;;;;;;;;;;;-4.65;62.02;100760.73;110189;1274;22435;-84
2024/01/07 14:00:10;;;;;;;;;;;;;;;-4.70;61.87;100763.20;110305;1270;22413;-82
2024/01/07 14:02:37;;;;;;;;;;;;;;;-4.70;62.30;100765.27;110429;1271;22405;-85
2024/01/07 14:05:10;;;;;;;;;;;;;;;-4.68;62.13;100768.79;110168;1278;22248;-80
2024/01/07 14:07:39;;;;;;;;;;;;;;;-4.74;61.95;100769.16;110108;1279;22452;-84
2024/01/07 14:10:07;;;;;;;;;;;;;;;-4.78;62.08;100772.21;110129;1278;22386;-84
2024/01/07 14:12:34;;;;;;;;;;;;;;;-4.84;61.92;100772.38;110230;1278;22398;-82
2024/01/07 14:15:34;;;;;;;;;;;;;;;-4.90;62.07;100778.34;110242;1278;22200;-84
2024/01/07 14:22:30;;;;;;;;;;;;;;;-5.05;61.99;100784.02;109961;1285;22367;-81
2024/01/07 14:28:23;;;;;;;;;;;;;;;-5.01;62.52;100791.95;109956;1270;22209;-82
2024/01/07 14:30:50;;;;;;;;;;;;;;;-5.02;62.16;100795.86;109892;1285;22391;-83
2024/01/07 14:33:21;;;;;;;;;;;;;;;-5.07;62.14;100791.25;109870;1285;22441;-82
2024/01/07 14:36:20;;;;;;;;;;;;;;;-5.15;62.14;100792.85;110282;1262;22473;-83
2024/01/07 14:38:47;;;;;;;;;;;;;;;-5.25;62.15;100794.66;109970;1285;22390;-83
2024/01/07 14:41:14;;;;;;;;;;;;;;;-5.26;62.44;100798.35;109863;1285;22309;-83
2024/01/07 14:47:38;;;;;;;;;;;;;;;-5.24;62.64;100803.51;110449;1278;23074;-79
2024/01/07 14:50:05;;;;;;;;;;;;;;;-5.22;62.50;100802.76;110256;1278;23066;-84
2024/01/07 14:52:34;;;;;;;;;;;;;;;-5.34;62.08;100804.92;110234;1278;22189;-84
2024/01/07 15:10:49;;;;;;;;;;;;;;;-5.10;62.46;100815.81;110124;1279;22456;-82
2024/01/07 15:13:16;;;;;;;;;;;;;;;-5.05;62.11;100816.30;110173;1279;23087;-84
2024/01/07 15:15:46;;;;;;;;;;;;;;;-5.10;61.91;100823.39;110103;1280;23159;-84
2024/01/07 15:18:14;;;;;;;;;;;;;;;-5.13;61.85;100824.23;110115;1278;22448;-85
2024/01/07 15:20:40;;;;;;;;;;;;;;;-5.22;61.29;100828.49;110143;1278;22398;-83
2024/01/07 15:23:07;;;;;;;;;;;;;;;-5.38;60.39;100832.84;110163;1273;23284;-82
2024/01/07 15:25:34;;;;;;;;;;;;;;;-5.45;60.00;100833.42;110137;1279;22467;-84
2024/01/07 15:28:01;;;;;;;;;;;;;;;-5.49;59.85;100835.59;110124;1279;23267;-81
2024/01/07 15:30:28;;;;;;;;;;;;;;;-5.53;59.61;100837.79;110131;1279;22372;-84
2024/01/07 15:32:55;;;;;;;;;;;;;;;-5.59;59.53;100838.57;110133;1279;22327;-83